• Join FlightAware (Why Join?)
  • Login
  • US Flag 
04:17PM EST


 

Airport Tracker/Info


-or-


 

Live Flight TrackerFlight Track Log ✈ ASQ5941 ✈ 17-May-2013 ✈ KAVP - KORD

Flight Track Log - Related Links

Times and Time Zones

All times are in EDT time to prevent confusion due to time zone crossing. See the ASQ5941 flight status page for this flight to view local times or setup timezone preferences in your user account.

Time Position Orientation Groundspeed Altitude Reporting Facility
EDT Latitude Longitude Course Direction KTS MPH feet Rate Location/Type
05:11PM 41.4383 -75.6358 33° Northeast 217 250 5,200  Level New York Center
05:12PM 41.4223 -75.9353 315° West  Level FlightAware Approximate
05:13PM 41.4700 -76.0211 315° West  Level FlightAware Approximate
05:13PM 41.5447 -75.7350 325° Northwest 263 303 9,400  Level New York Center
05:14PM 41.5263 -76.0978 312° West  Level FlightAware Approximate
05:14PM 41.5683 -75.8172 291° West 261 300 10,200  Level New York Center
05:15PM 41.5798 -76.1780 312° West  Level FlightAware Approximate
05:15PM 41.6014 -75.9225 293° West 289 333 11,200  Level New York Center
05:16PM 41.6353 -76.0472 290° West 317 365 12,800 1,500 Climbing New York Center
05:17PM 41.6658 -76.1578 290° West 323 372 14,300 1,320 Climbing New York Center
05:18PM 41.6983 -76.2686 291° West 323 372 15,600 1,260 Climbing New York Center
05:19PM 41.7269 -76.3683 291° West 323 372 16,800 960 Climbing New York Center
05:20PM 41.7836 -76.5756 290° West 320 368 18,200 900 Climbing Cleveland Center
05:21PM 41.8169 -76.6933 291° West 330 380 19,200 960 Climbing Cleveland Center
05:22PM 41.8503 -76.8139 290° West 342 394 20,200 900 Climbing Cleveland Center
05:23PM 41.8833 -76.9347 290° West 342 394 21,100 900 Climbing Cleveland Center
05:24PM 41.9183 -77.0556 291° West 342 394 22,100 1,080 Climbing Cleveland Center
05:25PM 41.9492 -77.1742 289° West 342 394 23,300 1,200 Climbing Cleveland Center
05:26PM 41.9817 -77.2925 290° West 342 394 24,600 1,140 Climbing Cleveland Center
05:27PM 42.0122 -77.4111 289° West 342 394 25,600 1,080 Climbing Cleveland Center
05:28PM 42.0422 -77.5242 290° West 342 394 26,800 1,080 Climbing Cleveland Center
05:29PM 42.0722 -77.6375 290° West 337 388 27,800 900 Climbing Cleveland Center
05:30PM 42.1022 -77.7481 290° West 331 381 28,700 900 Climbing Cleveland Center
05:31PM 42.1322 -77.8617 290° West 325 374 29,700 900 Climbing Cleveland Center
05:32PM 42.1619 -77.9753 289° West 325 374 30,600 960 Climbing Cleveland Center
05:33PM 42.1914 -78.0861 290° West 325 374 31,700 660 Climbing Cleveland Center
05:34PM 42.2208 -78.2028 289° West 325 374 32,000 120 Climbing Cleveland Center
05:35PM 42.2506 -78.3278 288° West 338 389 32,000  Level Cleveland Center
05:36PM 42.2842 -78.4531 290° West 351 404 32,000  Level Cleveland Center
05:37PM 42.3200 -78.5836 290° West 362 417 32,000  Level Cleveland Center
05:38PM 42.3511 -78.7092 289° West 361 415 32,000  Level Cleveland Center
05:39PM 42.3825 -78.8375 288° West 361 415 32,000  Level Cleveland Center
05:40PM 42.4111 -78.9492 289° West 361 415 32,000  Level Cleveland Center
05:41PM 42.4400 -79.0722 288° West 361 415 32,000  Level Cleveland Center
05:42PM 42.4792 -79.2178 290° West 361 415 32,000  Level Cleveland Center
05:43PM 42.4953 -79.3528 279° West 361 415 32,000  Level Cleveland Center
05:44PM 42.5031 -79.4906 274° West 366 421 32,000  Level Cleveland Center
05:45PM 42.5106 -79.6311 274° West 371 427 32,000  Level Cleveland Center
05:46PM 42.5158 -79.7719 273° West 371 427 32,000  Level Cleveland Center
05:47PM 42.5250 -79.9128 275° West 376 433 32,000  Level Cleveland Center
05:48PM 42.5258 -80.0564 270° West 376 433 32,000  Level Cleveland Center
05:49PM 42.5325 -80.1944 274° West 381 438 32,000  Level Cleveland Center
05:50PM 42.5392 -80.3408 274° West 386 444 32,000  Level Cleveland Center
05:51PM 42.5456 -80.4817 274° West 380 437 32,000  Level Cleveland Center
05:52PM 42.5519 -80.6197 274° West 379 436 32,000  Level Cleveland Center
05:53PM 42.5558 -80.7608 272° West 379 436 32,000  Level Cleveland Center
05:54PM 42.5619 -80.8961 274° West 368 423 32,000  Level Cleveland Center
05:55PM 42.5678 -81.0369 273° West 368 423 32,000  Level Cleveland Center
05:56PM 42.5692 -81.1725 271° West 368 423 32,000  Level Cleveland Center
05:57PM 42.5744 -81.3161 273° West 374 430 32,000  Level Cleveland Center
05:58PM 42.5819 -81.4433 275° West 374 430 32,000  Level Cleveland Center
05:59PM 42.6058 -81.5875 283° West 385 443 32,000  Level Cleveland Center
06:00PM 42.6297 -81.7233 283° West 390 449 32,000  Level Cleveland Center
06:01PM 42.6553 -81.8678 284° West 390 449 32,000  Level Cleveland Center
06:02PM 42.6806 -82.0094 284° West 390 449 32,000  Level Cleveland Center
06:03PM 42.7058 -82.1569 283° West 395 455 32,000  Level Cleveland Center
06:04PM 42.7308 -82.3017 283° West 395 455 32,000  Level Cleveland Center
06:05PM 42.7556 -82.4467 283° West 395 455 32,000  Level Cleveland Center
06:06PM 42.7781 -82.5944 282° West 395 455 32,000  Level Cleveland Center
06:07PM 42.8028 -82.7311 284° West 390 449 32,000  Level Cleveland Center
06:08PM 42.8253 -82.8678 283° West 380 437 32,000  Level Cleveland Center
06:09PM 42.8686 -82.9939 295° West 369 425 32,000  Level Cleveland Center
06:10PM 42.9264 -83.1067 305° West 360 414 32,000  Level Cleveland Center
06:11PM 42.9864 -83.2200 306° West 371 427 32,000 -240 Level Cleveland Center
06:12PM 43.0272 -83.3467 294° West 371 427 31,600 -720 Descending Cleveland Center
06:13PM 43.0094 -83.4822 260° West 343 395 30,600 -840 Descending Cleveland Center
06:14PM 42.9872 -83.6117 257° West 349 402 30,000 -300 Descending Cleveland Center
06:15PM 42.9672 -83.7411 258° West 355 409 30,000  Level Cleveland Center
06:16PM 42.9531 -83.8739 262° West 355 409 30,000  Level Cleveland Center
06:17PM 42.9386 -84.0092 262° West 355 409 30,000  Level Cleveland Center
06:18PM 42.9283 -84.1419 264° West 355 409 30,000  Level Cleveland Center
06:21PM 42.9133 -84.4636 266° West 369 425 30,000  Level Chicago Center
06:22PM 42.8828 -84.5972 253° West 369 425 30,000  Level Chicago Center
06:23PM 42.8678 -84.7347 262° West 369 425 30,000  Level Chicago Center
06:24PM 42.8547 -84.8725 263° West 369 425 30,000  Level Chicago Center
06:25PM 42.8372 -85.0378 262° West 368 423 30,000  Level Chicago Center
06:26PM 42.8228 -85.1733 262° West 364 419 30,000 -300 Level Chicago Center
06:27PM 42.8067 -85.3133 261° West 372 428 29,500 -780 Descending Chicago Center
06:28PM 42.7903 -85.4611 261° West 391 450 28,400 -780 Descending Chicago Center
06:29PM 42.7669 -85.6053 258° West 390 449 28,000 -480 Descending Chicago Center
06:30PM 42.7414 -85.7492 256° West 389 448 27,500 -1,260 Descending Chicago Center
06:31PM 42.7153 -85.8917 256° West 388 447 25,400 -2,400 Descending Chicago Center
06:32PM 42.6847 -86.0558 256° West 376 433 22,500 -2,520 Descending Chicago Center
06:33PM 42.6611 -86.1861 256° West 362 417 20,300 -1,260 Descending Chicago Center
06:34PM 42.6383 -86.3139 256° West 351 404 20,000 -180 Descending Chicago Center
06:35PM 42.6133 -86.4381 255° West 344 396 20,000 -240 Level Chicago Center
06:36PM 42.5908 -86.5642 256° West 343 395 19,600 -1,380 Descending Chicago Center
06:37PM 42.5681 -86.6856 256° West 342 394 17,200 -2,460 Descending Chicago Center
06:38PM 42.5403 -86.8011 252° West 316 364 14,600 -2,760 Descending Chicago Center
06:39PM 42.5067 -86.9244 250° West 293 337 11,500 -2,220 Descending Chicago Center
06:40PM 42.4794 -87.0222 249° West 280 322 10,100 -720 Descending Chicago Center
06:41PM 42.4525 -87.1189 249° West 274 315 10,000 -60 Descending Chicago Center
06:42PM 42.4261 -87.2181 250° West 280 322 10,000  Level Chicago Center
06:43PM 42.3992 -87.3169 250° West 281 323 10,000  Level Chicago Center
06:44PM 42.3678 -87.4275 249° West 280 322 10,000  Level Chicago Center
06:45PM 42.3406 -87.5264 250° West 282 325 10,000 -540 Level Chicago Center
06:47PM 42.2858 -87.5936 222° Southwest 270 311 8,900 -1,020 Descending Chicago Center
06:48PM 42.2161 -87.6675 218° Southwest 264 304 8,000 -480 Descending Chicago Center
06:49PM 42.1606 -87.7267 218° Southwest 258 297 8,000  Level Chicago Center
06:50PM 42.0972 -87.7717 208° Southwest 261 300 8,000  Level Chicago Center
06:50PM 42.0500 -87.8000 204° Southwest 264 304 8,000  Level Chicago TRACON
06:51PM 41.9833 -87.8167 191° South 273 314 8,000 -420 Level Chicago TRACON
06:52PM 41.9167 -87.8500 200° South 246 283 7,200 -1,320 Descending Chicago TRACON
06:53PM 41.8667 -87.8833 206° Southwest 217 250 5,600 -1,680 Descending Chicago TRACON
06:54PM 41.8294 -87.8922 190° South 223 257 4,700 -1,020 Descending Chicago Center
06:55PM 41.8217 -87.9567 261° West 242 278 4,000 -780 Descending Chicago Center
06:56PM 41.8831 -87.9664 353° North 231 266 3,100 -900 Descending Chicago Center